»·PEaware :: N125EG KMYF-L04

N125EG :: KMYF-L04

FLIGHT INFORMATION

Flight Status: Arrived
Operator: Privately registered:
United States
More flights under this callsign
Pilot: Eugene Z. (6)
Aircraft: PIAGGIO P-180 AVANTI
(P180)
More flights by this aircraft type
Origin: KMYF Montgomery
United States
Destination: L04 Holtville
United States
More flights between these airports :: More routes between these airports
Route: +H270 MZB V317 IPL
File this flight plan on PilotEdge
Remarks:
Altitude:
(Current/Filed)
13,000ft
Speed:
(Current/Filed)
360kts
Departed: 08-Feb-12 07:02 PM
Arrived: 08-Feb-12 07:31 PM
Distance/Time
Traveled:
94nm/0:28
Distance/Time
To Go:
Arrived

Flight Plot

Page will automatically refresh every two minutes.

Flight plan parsing failed; only flown route is shown


Map Options




Map Legend


Flown Route
Filed Route
Departure Airport
Arrival Airport
Navaid (VOR, NDB)
Fix

Horizontal Profiles

Position Reports

Time Latitude Longitude Heading Altitude Ground
Speed
08-Feb-12 18:43 32.813568 -117.139954 357 431ft 0kts
08-Feb-12 18:44 32.813568 -117.139954 357 431ft 0kts
08-Feb-12 18:45 32.813568 -117.139954 357 431ft 0kts
08-Feb-12 18:46 32.813568 -117.139954 357 431ft 0kts
08-Feb-12 18:47 32.813568 -117.139954 357 431ft 0kts
08-Feb-12 18:48 32.813568 -117.139954 357 431ft 0kts
08-Feb-12 18:49 32.813568 -117.139954 357 431ft 0kts
08-Feb-12 18:50 32.813568 -117.139954 357 431ft 0kts
08-Feb-12 18:51 32.813568 -117.139954 357 431ft 0kts
08-Feb-12 18:52 32.813568 -117.139954 357 431ft 0kts
08-Feb-12 18:53 32.813568 -117.139954 357 431ft 0kts
08-Feb-12 18:54 32.813568 -117.139954 357 431ft 0kts
08-Feb-12 18:55 32.813568 -117.139954 357 431ft 0kts
08-Feb-12 18:56 32.813568 -117.139954 357 431ft 0kts
08-Feb-12 18:57 32.813484 -117.138520 114 431ft 15kts
08-Feb-12 18:58 32.812430 -117.135823 106 431ft 2kts
08-Feb-12 18:59 32.812605 -117.135575 20 431ft 0kts
08-Feb-12 19:00 32.812637 -117.135560 19 431ft 3kts
08-Feb-12 19:01 32.819904 -117.157019 283 1453ft 136kts
08-Feb-12 19:02 32.824227 -117.207620 244 4538ft 170kts
08-Feb-12 19:03 32.779452 -117.210310 140 7888ft 200kts
08-Feb-12 19:04 32.742980 -117.163722 128 11086ft 211kts
08-Feb-12 19:05 32.698600 -117.101765 128 12904ft 289kts
08-Feb-12 19:06 32.641602 -117.022416 128 12992ft 322kts
08-Feb-12 19:08 32.625106 -116.832069 80 12989ft 299kts
08-Feb-12 19:09 32.633493 -116.747109 81 12988ft 295kts
08-Feb-12 19:10 32.642475 -116.655480 82 12986ft 294kts
08-Feb-12 19:11 32.650176 -116.576382 82 12988ft 295kts
08-Feb-12 19:12 32.659440 -116.480374 82 12998ft 297kts
08-Feb-12 19:13 32.668120 -116.388436 82 12999ft 298kts
08-Feb-12 19:14 32.677338 -116.291436 81 12999ft 298kts
08-Feb-12 19:15 32.686476 -116.194647 81 12999ft 298kts
08-Feb-12 19:16 32.695378 -116.099559 81 12999ft 297kts
08-Feb-12 19:17 32.704079 -116.005857 81 11875ft 282kts
08-Feb-12 19:18 32.712306 -115.916594 82 10496ft 274kts
08-Feb-12 19:19 32.720424 -115.827599 82 9110ft 272kts
08-Feb-12 19:21 32.736442 -115.649977 83 6331ft 268kts
08-Feb-12 19:22 32.744072 -115.564371 83 5002ft 259kts
08-Feb-12 19:23 32.758336 -115.483161 64 3694ft 251kts
08-Feb-12 19:24 32.782338 -115.420803 65 2737ft 192kts
08-Feb-12 19:25 32.802638 -115.367008 64 1814ft 173kts
08-Feb-12 19:26 32.821658 -115.315678 75 988ft 168kts
08-Feb-12 19:27 32.820410 -115.262948 92 853ft 161kts
08-Feb-12 19:28 32.825505 -115.215947 21 874ft 145kts
08-Feb-12 19:29 32.839664 -115.248297 274 328ft 122kts
08-Feb-12 19:30 32.840398 -115.271398 271 63ft 24kts
08-Feb-12 19:31 32.839890 -115.277104 181 63ft 5kts
08-Feb-12 19:32 32.839426 -115.276642 92 63ft 0kts
08-Feb-12 19:33 32.839426 -115.276642 92 63ft 0kts
08-Feb-12 19:34 32.839426 -115.276642 92 63ft 0kts
08-Feb-12 19:35 32.839426 -115.276642 92 63ft 0kts

Navigation Log

Ident Type
Flight plan parsing failed, navigation log unavailable